createdAt,value
2022-09-20T00:08:36.210Z,97
2022-09-20T00:18:36.666Z,97
2022-09-20T00:28:36.917Z,98
2022-09-20T00:38:37.595Z,98
2022-09-20T00:48:38.130Z,98
2022-09-20T00:58:38.970Z,98
2022-09-20T01:08:39.674Z,98
2022-09-20T01:18:39.943Z,99
2022-09-20T01:28:40.191Z,99
2022-09-20T01:38:41.004Z,99
2022-09-20T01:48:41.680Z,99
2022-09-20T01:58:42.624Z,100
2022-09-20T02:08:42.741Z,100
2022-09-20T02:18:43.828Z,100
2022-09-20T02:28:44.234Z,100
2022-09-20T02:38:45.267Z,100
2022-09-20T02:48:46.274Z,100
2022-09-20T02:58:46.851Z,100
2022-09-20T03:08:47.802Z,100
2022-09-20T03:18:48.109Z,100
2022-09-20T03:28:48.985Z,100
2022-09-20T03:38:50.024Z,100
2022-09-20T03:48:50.983Z,100
2022-09-20T03:58:51.619Z,100
2022-09-20T04:08:51.789Z,100
2022-09-20T04:18:52.244Z,100
2022-09-20T04:28:53.042Z,100
2022-09-20T04:38:53.516Z,100
2022-09-20T04:48:54.008Z,100
2022-09-20T04:58:54.640Z,100
2022-09-20T05:08:58.697Z,100
2022-09-20T05:18:55.451Z,100
2022-09-20T05:28:56.190Z,100
2022-09-20T05:38:56.473Z,100
2022-09-20T05:48:57.342Z,100
2022-09-20T05:58:57.970Z,100
2022-09-20T06:08:58.931Z,100
2022-09-20T06:18:59.653Z,100
2022-09-20T06:29:00.408Z,100
2022-09-20T06:39:01.072Z,100
2022-09-20T06:49:01.820Z,100
2022-09-20T06:59:02.814Z,100
2022-09-20T07:09:03.014Z,100
2022-09-20T07:19:03.672Z,100
2022-09-20T07:29:03.976Z,100
2022-09-20T07:49:04.938Z,100
2022-09-20T07:59:05.234Z,100
2022-09-20T08:09:09.020Z,100
2022-09-20T08:19:06.532Z,100
2022-09-20T08:29:07.727Z,100
2022-09-20T09:09:10.698Z,100
2022-09-20T09:29:11.298Z,95
2022-09-20T09:39:11.962Z,93
2022-09-20T09:49:13.125Z,90
2022-09-20T09:59:13.193Z,87
2022-09-20T10:09:13.477Z,86
2022-09-20T10:19:13.930Z,82
2022-09-20T10:39:15.001Z,79
2022-09-20T10:49:15.967Z,79
2022-09-20T10:49:37.827Z,79
2022-09-20T10:59:21.873Z,79
2022-09-20T11:09:22.801Z,78
2022-09-20T11:19:23.843Z,77
2022-09-20T11:29:24.106Z,75
2022-09-20T11:39:24.355Z,75
2022-09-20T11:49:25.085Z,72
2022-09-20T11:59:25.167Z,70
2022-09-20T12:09:25.544Z,71
2022-09-20T12:19:26.243Z,73
2022-09-20T12:29:27.329Z,74
2022-09-20T12:39:29.832Z,75
2022-09-20T12:49:29.114Z,75
2022-09-20T12:59:29.702Z,75
2022-09-20T13:19:31.003Z,73
2022-09-20T13:29:32.056Z,72
2022-09-20T13:39:32.699Z,72
2022-09-20T13:49:33.018Z,72
2022-09-20T13:59:34.023Z,73
2022-09-20T14:09:35.057Z,72
2022-09-20T14:59:38.375Z,64
2022-09-20T15:09:38.660Z,66
2022-09-20T15:19:39.582Z,70
2022-09-20T15:29:39.835Z,72
2022-09-20T15:39:40.276Z,74
2022-09-20T15:49:41.231Z,74
2022-09-20T15:59:41.748Z,74
2022-09-20T16:09:42.193Z,74
2022-09-20T16:19:42.513Z,74
2022-09-20T16:29:43.015Z,74
2022-09-20T16:39:43.134Z,76
2022-09-20T16:49:43.777Z,76
2022-09-20T16:59:44.284Z,77
2022-09-20T17:09:45.162Z,78
2022-09-20T17:19:45.539Z,79
2022-09-20T17:29:45.780Z,80
2022-09-20T17:39:46.015Z,81
2022-09-20T17:49:46.624Z,82
2022-09-20T17:59:47.481Z,83
2022-09-20T18:09:47.597Z,83
2022-09-20T18:19:48.171Z,84
2022-09-20T18:29:48.345Z,86
2022-09-20T18:39:48.484Z,87
2022-09-20T18:49:49.203Z,88
2022-09-20T18:59:54.542Z,89
2022-09-20T19:09:50.534Z,90
2022-09-20T19:19:50.999Z,90
2022-09-20T19:29:51.904Z,91
2022-09-20T19:39:52.465Z,92
2022-09-20T19:49:53.406Z,93
2022-09-20T19:59:53.857Z,94
2022-09-20T20:19:54.197Z,95
2022-09-20T20:29:54.397Z,95
2022-09-20T20:39:55.208Z,96
2022-09-20T20:49:55.698Z,96
2022-09-20T21:09:56.195Z,96
2022-09-20T21:19:56.938Z,97
2022-09-20T21:29:57.631Z,97
2022-09-20T21:39:58.490Z,97
2022-09-20T21:49:58.437Z,98
2022-09-20T22:09:59.784Z,98
2022-09-20T22:20:00.129Z,98
2022-09-20T22:30:04.721Z,98
2022-09-20T22:40:01.812Z,98
2022-09-20T22:50:01.890Z,99
2022-09-20T23:00:02.221Z,99
2022-09-20T23:10:02.673Z,99
2022-09-20T23:20:03.677Z,99
2022-09-20T23:30:03.881Z,99
2022-09-20T23:40:04.469Z,99
2022-09-20T23:50:05.299Z,99
